Latest Weather Observations for Red Rocks Point

IDW60801

Issued at 9:35 pm WST Saturday 25 October 2014 (issued every 30 minutes, with the page automatically refreshed every 10 minutes)

About weather observations | Map of weather stations | Latest weather observations for WA | Other Formats
Station Details ID: 011053 Name: RED ROCKS POINT Lat: -32.20 Lon: 127.53 Height: 3.1 m
Data from the previous 72 hours. | See also: Recent months for locations in Western Australia
Date/Time
WST
Temp
°C
App
Temp
°C
Dew
Point
Rel
Hum
%
Delta-T
°C
Wind Press
QNH
hPa
Press
MSL
hPa
Rain
since 9 am
mm
Dir
 
Spd
km/h
Gust
km/h
Spd
kts
Gust
kts
25/09:30pm 19.1 16.3 16.3 84 1.7 E 26 32 14 17 1009.2 - 0.0
25/09:00pm 19.2 15.7 16.4 84 1.7 E 30 35 16 19 1009.3 1009.3 0.0
25/08:30pm 19.2 15.7 16.4 84 1.7 E 30 37 16 20 1009.6 - 0.0
25/08:00pm 19.1 16.8 16.7 86 1.4 E 24 30 13 16 1010.0 - 0.0
25/07:30pm 18.8 16.9 16.6 87 1.3 ESE 22 26 12 14 1009.9 - 0.0
25/07:00pm 18.8 16.5 16.6 87 1.3 ESE 24 28 13 15 1009.8 - 0.0
25/06:30pm 18.8 15.8 16.8 88 1.2 E 28 35 15 19 1009.3 - 0.0
25/06:00pm 18.8 15.5 16.9 89 1.1 E 30 33 16 18 1009.2 1009.2 0.0
25/05:30pm 19.0 16.1 17.0 88 1.2 ESE 28 33 15 18 1009.0 - 0.0
25/05:00pm 19.4 16.2 17.2 87 1.3 E 30 35 16 19 1008.8 - 0.0
25/04:30pm 19.7 16.1 17.1 85 1.6 E 32 39 17 21 1008.7 - 0.0
25/04:00pm 19.5 15.6 16.9 85 1.6 E 33 39 18 21 1008.6 - 0.0
25/03:30pm 19.6 15.6 16.8 84 1.7 E 33 39 18 21 1008.9 - 0.0
25/03:00pm 19.9 16.2 16.9 83 1.8 E 32 39 17 21 1009.1 1009.1 0.0
25/02:30pm 20.2 16.0 17.2 83 1.8 E 35 43 19 23 1009.5 - 0.0
25/02:00pm 20.2 16.0 17.2 83 1.8 E 35 41 19 22 1009.9 - 0.0
25/01:30pm 20.3 15.9 16.7 80 2.2 E 35 41 19 22 1010.5 - 0.0
25/01:00pm 20.0 16.2 16.6 81 2.1 E 32 37 17 20 1011.4 - 0.0
25/12:30pm 20.6 16.6 16.8 79 2.3 E 33 39 18 21 1012.0 - 0.0
25/12:00pm 20.6 16.9 17.0 80 2.2 E 32 37 17 20 1012.6 1012.6 0.0
25/11:30am 20.7 16.8 16.9 79 2.3 E 33 39 18 21 1012.9 - 0.0
25/11:00am 19.6 15.4 16.3 81 2.0 E 33 41 18 22 1013.4 - 0.0
25/10:30am 20.4 16.2 16.2 77 2.5 E 33 39 18 21 1014.1 - 0.0
25/10:00am 20.1 16.0 15.9 77 2.5 E 32 37 17 20 1014.9 - 0.0
25/09:30am 20.6 17.1 16.4 77 2.5 E 30 35 16 19 1015.5 - 0.0
25/09:00am 20.2 16.5 16.0 77 2.5 E 30 33 16 18 1016.0 1016.0 0.0
25/08:30am 19.7 16.5 15.4 76 2.5 E 26 30 14 16 1016.1 - 0.0
25/08:00am 20.1 18.2 15.1 73 2.9 E 19 24 10 13 1016.7 - 0.0
25/07:30am 19.0 16.3 14.5 75 2.6 ENE 22 26 12 14 1016.9 - 0.0
25/07:00am 17.8 14.5 14.1 79 2.1 ENE 24 28 13 15 1016.9 - 0.0
25/06:30am 17.1 14.6 14.2 83 1.7 NE 20 28 11 15 1017.3 - 0.0
25/06:00am 16.7 14.5 14.5 87 1.3 ENE 19 24 10 13 1016.9 1016.9 0.0
25/05:30am 16.2 13.8 13.7 85 1.4 NE 19 28 10 15 1016.9 - 0.0
25/05:00am 16.4 14.0 13.9 85 1.4 NE 19 33 10 18 1017.0 - 0.0
25/04:30am 16.6 13.5 14.4 87 1.3 E 24 30 13 16 1016.8 - 0.0
25/04:00am 16.8 13.3 14.6 87 1.3 ENE 26 32 14 17 1016.8 - 0.0
25/03:30am 16.6 14.3 14.6 88 1.1 E 20 28 11 15 1017.2 - 0.0
25/03:00am 16.4 13.9 14.2 87 1.3 ESE 20 28 11 15 1016.1 1016.1 0.0
25/02:30am 16.9 15.6 14.7 87 1.3 ENE 15 20 8 11 1016.5 - 0.0
25/02:00am 16.4 15.1 13.7 84 1.5 NE 13 17 7 9 1016.9 - 0.0
25/01:30am 16.8 14.4 14.4 86 1.4 E 20 24 11 13 1017.1 - 0.0
25/01:00am 16.8 14.1 14.6 87 1.3 ENE 22 28 12 15 1017.5 - 0.0
25/12:30am 16.7 13.6 14.5 87 1.3 E 24 30 13 16 1017.5 - 0.0
25/12:00am 16.9 13.8 14.5 86 1.4 E 24 30 13 16 1017.7 1017.7 0.0
 
Date/Time
WST
Temp
°C
App
Temp
°C
Dew
Point
Rel
Hum
%
Delta-T
°C
Wind Press
QNH
hPa
Press
MSL
hPa
Rain
since 9 am
mm
Dir
 
Spd
km/h
Gust
km/h
Spd
kts
Gust
kts
24/11:30pm 16.9 14.5 14.4 85 1.4 E 20 28 11 15 1018.0 - 0.0
24/11:00pm 17.3 14.3 14.9 86 1.4 E 24 30 13 16 1018.2 - 0.0
24/10:30pm 17.3 14.6 14.6 84 1.6 E 22 26 12 14 1018.5 - 0.0
24/10:00pm 17.4 15.1 14.7 84 1.6 ESE 20 26 11 14 1018.6 - 0.0
24/09:30pm 17.5 15.2 14.6 83 1.7 ESE 20 24 11 13 1018.5 - 0.0
24/09:00pm 17.6 15.2 14.5 82 1.8 ESE 20 24 11 13 1018.7 1018.7 0.0
24/08:30pm 17.5 15.0 14.2 81 1.9 SE 20 24 11 13 1018.9 - 0.0
24/08:00pm 17.6 14.9 14.5 82 1.8 SSE 22 24 12 13 1019.0 - 0.0
24/07:30pm 17.5 14.4 14.4 82 1.8 SSE 24 30 13 16 1018.5 - 0.0
24/07:00pm 17.6 15.0 14.9 84 1.6 S 22 28 12 15 1018.2 - 0.0
24/06:30pm 17.5 14.4 14.6 83 1.7 S 24 30 13 16 1017.7 - 0.0
24/06:00pm 17.5 14.8 14.6 83 1.7 S 22 26 12 14 1017.5 1017.5 0.0
24/05:30pm 17.6 14.9 14.5 82 1.8 S 22 28 12 15 1017.5 - 0.0
24/05:00pm 18.1 15.3 14.4 79 2.1 S 22 30 12 16 1017.4 - 0.0
24/04:30pm 18.8 16.0 14.3 75 2.6 S 22 28 12 15 1017.7 - 0.0
24/04:00pm 19.1 16.9 14.8 76 2.5 S 20 24 11 13 1017.4 - 0.0
24/03:30pm 19.5 17.4 14.7 74 2.8 S 19 22 10 12 1017.4 - 0.0
24/03:00pm 20.3 18.2 14.7 70 3.3 S 19 20 10 11 1017.4 1017.4 0.0
24/02:30pm 20.5 18.4 14.8 70 3.3 S 19 22 10 12 1017.5 - 0.0
24/02:00pm 20.9 18.7 14.5 67 3.7 S 19 24 10 13 1017.3 - 0.0
24/01:30pm 21.7 19.5 14.8 65 4.1 SSW 20 28 11 15 1017.4 - 0.0
24/01:00pm 20.8 18.1 14.7 68 3.6 SSW 22 32 12 17 1017.4 - 0.0
24/12:30pm 22.2 19.4 15.3 65 4.1 SSW 24 30 13 16 1017.4 - 0.0
24/12:00pm 22.6 20.0 15.0 62 4.5 SSW 22 30 12 16 1017.4 1017.4 0.0
24/11:30am 22.2 19.1 14.6 62 4.5 SSW 24 30 13 16 1017.4 - 0.0
24/11:00am 22.2 20.1 15.3 65 4.1 SSW 20 28 11 15 1017.6 - 0.0
24/10:30am 21.8 19.4 15.4 67 3.8 SSW 22 30 12 16 1017.8 - 0.0
24/10:00am 21.8 19.2 14.9 65 4.1 SSW 22 30 12 16 1017.9 - 0.0
24/09:30am 21.6 19.3 14.7 65 4.1 SW 20 30 11 16 1018.1 - 0.0
24/09:00am 22.2 20.0 16.0 68 3.7 SW 22 32 12 17 1018.1 1018.1 0.0
24/08:30am 21.9 19.8 15.3 66 3.9 SW 20 28 11 15 1017.8 - 0.0
24/08:00am 21.3 19.2 15.2 68 3.6 SW 20 28 11 15 1017.6 - 0.0
24/07:30am 20.9 18.8 15.2 70 3.4 SW 20 28 11 15 1017.3 - 0.0
24/07:00am 20.3 18.8 15.3 73 3.0 SW 17 24 9 13 1017.1 - 0.0
24/06:30am 18.8 18.0 15.1 79 2.2 WSW 13 19 7 10 1017.0 - 0.0
24/06:00am 16.1 15.5 14.5 90 0.9 W 11 15 6 8 1016.7 1016.7 0.0
24/05:30am 13.0 10.4 11.9 93 0.6 WNW 17 20 9 11 1016.3 - 0.0
24/05:00am 12.2 9.0 11.3 94 0.5 WNW 19 20 10 11 1015.9 - 0.0
24/04:30am 12.7 9.7 11.8 94 0.5 WNW 19 20 10 11 1015.3 - 0.0
24/04:00am 12.5 9.8 11.6 94 0.5 WNW 17 19 9 10 1015.0 - 0.0
24/03:30am 12.9 10.2 11.8 93 0.6 WNW 17 19 9 10 1014.7 - 0.0
24/03:00am 13.2 11.8 12.1 93 0.6 WNW 11 13 6 7 1014.4 1014.4 0.0
24/02:30am 13.4 11.7 12.3 93 0.6 WNW 13 15 7 8 1014.5 - 0.0
24/02:00am 13.9 13.0 12.6 92 0.7 WNW 9 11 5 6 1014.4 - 0.0
24/01:30am 14.0 12.9 12.0 88 1.1 WSW 9 11 5 6 1014.1 - 0.0
24/01:00am 15.6 15.1 13.8 89 1.0 SW 9 11 5 6 1014.1 - 0.0
24/12:30am 15.6 15.0 13.4 87 1.2 S 9 11 5 6 1014.0 - 0.0
24/12:00am 16.5 16.1 14.2 86 1.3 S 9 11 5 6 1014.5 1014.5 0.0
 
Date/Time
WST
Temp
°C
App
Temp
°C
Dew
Point
Rel
Hum
%
Delta-T
°C
Wind Press
QNH
hPa
Press
MSL
hPa
Rain
since 9 am
mm
Dir
 
Spd
km/h
Gust
km/h
Spd
kts
Gust
kts
23/11:30pm 17.0 17.0 14.3 84 1.5 SSE 7 9 4 5 1014.7 - 0.0
23/11:00pm 18.0 17.6 15.3 84 1.6 S 11 15 6 8 1014.6 - 0.0
23/10:30pm 18.2 16.7 15.3 83 1.7 SSW 17 20 9 11 1014.7 - 0.0
23/10:00pm 18.4 17.4 15.5 83 1.7 SSW 15 22 8 12 1014.6 - 0.0
23/09:30pm 18.4 17.7 15.5 83 1.7 SSW 13 19 7 10 1014.4 - 0.0
23/09:00pm 18.6 17.7 15.8 84 1.7 SSW 15 20 8 11 1013.9 1013.9 0.0
23/08:30pm 18.7 17.8 15.8 83 1.7 SSW 15 19 8 10 1013.8 - 0.0
23/08:00pm 18.6 18.1 15.8 84 1.7 S 13 17 7 9 1013.4 - 0.0
23/07:30pm 18.9 18.8 16.1 84 1.7 S 11 13 6 7 1012.7 - 0.0
23/07:00pm 18.9 19.7 15.9 83 1.8 SE 6 15 3 8 1012.5 - 0.0
23/06:30pm 18.8 19.2 16.2 85 1.6 ESE 9 13 5 7 1011.8 - 0.0
23/06:00pm 18.7 15.4 16.1 85 1.5 S 28 35 15 19 1010.6 1010.6 0.0
23/05:30pm 19.0 17.2 16.0 83 1.8 S 20 30 11 16 1010.4 - 0.0
23/05:00pm 22.9 20.9 15.0 61 4.7 WSW 19 33 10 18 1009.6 - 0.0
23/04:56pm 24.4 21.4 14.8 55 5.7 W 24 33 13 18 1009.5 - 0.0
23/04:43pm 29.6 25.8 11.2 32 10.6 WSW 22 43 12 23 1008.6 - 0.0
23/04:30pm 34.9 30.1 5.4 16 15.9 NNW 20 37 11 20 1007.6 - 0.0
23/04:00pm 35.1 29.1 5.5 16 16.0 NNW 26 43 14 23 1007.0 - 0.0
23/03:30pm 36.7 32.2 6.8 16 16.6 NNW 20 35 11 19 1007.3 - 0.0
23/03:00pm 35.9 32.2 7.9 18 15.8 NW 17 30 9 16 1007.6 1007.6 0.0
23/02:30pm 34.9 30.8 8.6 20 14.9 NNW 20 32 11 17 1008.0 - 0.0
23/02:00pm 32.8 29.9 9.6 24 13.2 N 15 24 8 13 1008.4 - 0.0
23/01:30pm 32.4 28.4 9.2 24 13.1 N 20 37 11 20 1008.8 - 0.0
23/01:00pm 30.1 25.8 10.6 30 11.1 N 24 33 13 18 1009.6 - 0.0
23/12:30pm 28.7 24.4 10.8 33 10.2 NNE 24 39 13 21 1010.5 - 0.0
23/12:00pm 27.6 23.3 10.8 35 9.5 N 24 39 13 21 1011.0 1011.0 0.0
23/11:30am 25.7 21.8 10.7 39 8.4 N 22 32 12 17 1011.7 - 0.0
23/11:00am 25.8 21.9 10.8 39 8.4 NNE 22 32 12 17 1011.9 - 0.0
23/10:30am 23.6 20.3 11.6 47 6.8 NNE 20 30 11 16 1012.6 - 0.0
23/10:00am 22.4 18.0 11.8 51 6.0 NE 26 37 14 20 1013.5 - 0.0
23/09:30am 21.4 17.0 11.7 54 5.4 NE 26 35 14 19 1014.5 - 0.0
23/08:30am 19.3 14.7 12.3 64 3.9 NE 28 33 15 18 1015.1 - 0.0
23/08:00am 17.6 14.2 12.5 72 2.8 NE 22 28 12 15 1015.5 - 0.0
23/07:30am 16.8 14.9 12.9 78 2.2 NE 15 20 8 11 1016.3 - 0.0
23/07:00am 16.1 16.6 12.8 81 1.8 NE 2 13 1 7 1016.4 - 0.0
23/06:30am 15.8 12.5 12.9 83 1.6 NE 22 28 12 15 1015.4 - 0.0
23/06:00am 15.7 12.4 12.8 83 1.6 NE 22 28 12 15 1015.7 1015.7 0.0
23/05:30am 15.6 14.0 12.9 84 1.5 NE 13 19 7 10 1015.9 - 0.0
23/05:00am 15.6 12.0 13.1 85 1.4 NE 24 32 13 17 1015.5 - 0.0
23/04:30am 15.6 12.8 13.3 86 1.3 NE 20 28 11 15 1015.2 - 0.0
23/04:00am 15.6 11.7 13.4 87 1.2 NE 26 35 14 19 1015.1 - 0.0
23/03:30am 15.7 11.5 13.4 86 1.3 NE 28 33 15 18 1014.8 - 0.0
23/03:00am 15.9 11.3 13.4 85 1.4 NE 30 41 16 22 1015.1 1015.1 0.0
23/02:30am 16.1 12.3 13.6 85 1.4 NE 26 35 14 19 1015.4 - 0.0
23/02:00am 16.2 12.1 13.9 86 1.3 NE 28 35 15 19 1015.5 - 0.0
23/01:30am 16.9 11.1 14.9 88 1.2 ENE 39 48 21 26 1015.9 - 0.0
23/01:23am 16.9 13.1 14.7 87 1.3 ENE 28 46 15 25 1016.0 - 0.0
23/01:00am 16.8 10.8 14.4 86 1.4 E 39 44 21 24 1016.5 - 0.0
23/12:30am 16.8 10.8 14.3 85 1.4 E 39 44 21 24 1017.4 - 0.0
23/12:00am 16.7 10.6 14.0 84 1.5 E 39 44 21 24 1017.8 1017.8 0.0
 
Date/Time
WST
Temp
°C
App
Temp
°C
Dew
Point
Rel
Hum
%
Delta-T
°C
Wind Press
QNH
hPa
Press
MSL
hPa
Rain
since 9 am
mm
Dir
 
Spd
km/h
Gust
km/h
Spd
kts
Gust
kts
22/11:30pm 16.8 10.7 14.1 84 1.5 E 39 44 21 24 1018.1 - 0.0
22/11:00pm 17.0 11.5 14.6 86 1.4 E 37 43 20 23 1018.8 - 0.0
22/10:30pm 16.7 10.9 13.8 83 1.6 E 37 43 20 23 1019.3 - 0.0
22/10:00pm 16.8 11.8 14.1 84 1.5 E 33 39 18 21 1020.1 - 0.0

Other Formats:

Comma delimited format used in spreadsheet applications
http://www.bom.gov.au/fwo/IDW60801/IDW60801.94644.axf

JavaScript Object Notation format (JSON) in row-major order
http://www.bom.gov.au/fwo/IDW60801/IDW60801.94644.json